Latest Weather Observations for Wangaratta

IDV60801

Issued at 7:35 pm EDT Tuesday 21 October 2014 (issued every 30 minutes, with the page automatically refreshed every 10 minutes)

About weather observations | Map of weather stations | Latest weather observations for VIC | Other Formats
Station Details ID: 082138 Name: WANGARATTA AERO Lat: -36.42 Lon: 146.31 Height: 152.6 m
Data from the previous 72 hours. | See also: Recent months at Wangaratta
Date/Time
EDT
Temp
°C
App
Temp
°C
Dew
Point
Rel
Hum
%
Delta-T
°C
Wind Press
QNH
hPa
Press
MSL
hPa
Rain
since 9 am
mm
Dir
 
Spd
km/h
Gust
km/h
Spd
kts
Gust
kts
21/07:30pm 21.1 20.3 11.2 53 5.5 E 6 7 3 4 1023.3 1023.3 0.0
21/07:00pm 24.3 22.7 8.7 37 8.4 NE 7 9 4 5 1023.1 1023.1 0.0
21/06:30pm 25.2 22.8 8.7 35 8.9 NE 11 15 6 8 1023.0 1023.0 0.0
21/06:00pm 25.9 23.4 8.0 32 9.6 NE 11 13 6 7 1023.2 1023.2 0.0
21/05:30pm 26.0 23.6 7.1 30 10.0 ENE 9 13 5 7 1023.2 1023.2 0.0
21/05:00pm 25.9 23.4 8.4 33 9.5 N 11 15 6 8 1023.2 1023.2 0.0
21/04:30pm 26.0 23.5 8.0 32 9.7 N 11 19 6 10 1023.4 1023.4 0.0
21/04:00pm 25.6 23.1 8.1 33 9.4 NNW 11 19 6 10 1023.7 1023.7 0.0
21/03:30pm 25.4 21.9 8.8 35 9.0 N 17 20 9 11 1024.1 1024.1 0.0
21/03:00pm 25.5 23.3 10.9 40 8.2 E 13 20 7 11 1024.5 1024.5 0.0
21/02:30pm 25.3 23.0 10.4 39 8.3 NE 13 19 7 10 1025.0 1025.0 0.0
21/02:00pm 24.6 21.8 10.1 40 8.0 NNE 15 22 8 12 1025.6 1025.5 0.0
21/01:30pm 24.5 22.0 11.1 43 7.6 NNE 15 22 8 12 1026.0 1025.9 0.0
21/01:00pm 23.6 20.9 10.3 43 7.3 N 15 24 8 13 1026.4 1026.3 0.0
21/12:30pm 23.1 20.2 9.8 43 7.3 NNE 15 22 8 12 1026.7 1026.6 0.0
21/12:00pm 22.5 20.2 10.3 46 6.7 NNE 13 22 7 12 1027.1 1027.0 0.0
21/11:30am 20.8 18.3 9.7 49 6.0 NNE 13 20 7 11 1027.6 1027.6 0.0
21/11:00am 19.7 17.7 10.1 54 5.2 NNE 11 19 6 10 1028.0 1028.0 0.0
21/10:30am 19.1 17.8 9.9 55 4.9 E 7 13 4 7 1028.2 1028.2 0.0
21/10:00am 18.1 16.7 8.9 55 4.8 NE 6 11 3 6 1028.2 1028.2 0.0
21/09:30am 16.7 15.8 9.1 61 4.0 E 4 11 2 6 1028.2 1028.2 0.0
21/09:00am 15.3 14.2 9.9 70 2.8 ESE 6 9 3 5 1028.2 1028.2 0.0
21/08:30am 12.9 11.6 9.2 78 1.9 SSE 6 7 3 4 1028.1 1028.1 0.0
21/08:00am 10.7 9.6 10.7 100 0.0 SSW 7 7 4 4 1027.9 1027.9 0.0
21/07:30am 8.4 6.9 8.4 100 0.0 SSW 6 7 3 4 1027.5 1027.5 0.0
21/07:00am 6.1 5.2 6.1 100 0.0 CALM 0 0 0 0 1027.3 1027.2 0.0
21/06:30am 5.9 4.6 5.9 100 0.0 S 2 6 1 3 1027.0 1026.9 0.0
21/06:00am 6.4 5.6 6.4 100 0.0 CALM 0 0 0 0 1026.6 1026.5 0.0
21/05:30am 6.5 5.7 6.4 99 0.0 CALM 0 0 0 0 1026.3 1026.2 0.0
21/05:00am 7.6 7.0 7.5 99 0.0 CALM 0 0 0 0 1026.3 1026.2 0.0
21/04:30am 7.2 6.1 7.1 99 0.0 E 2 7 1 4 1026.2 1026.1 0.0
21/04:00am 8.0 7.1 7.9 99 0.0 ENE 2 7 1 4 1026.1 1026.0 0.0
21/03:30am 8.5 8.0 7.9 96 0.3 CALM 0 0 0 0 1026.2 1026.1 0.0
21/03:00am 8.9 8.4 7.8 93 0.5 CALM 0 0 0 0 1026.1 1026.0 0.0
21/02:30am 9.1 8.6 8.0 93 0.5 CALM 0 6 0 3 1026.0 1025.9 0.0
21/02:00am 8.7 7.1 7.9 95 0.4 SW 6 6 3 3 1026.1 1026.0 0.0
21/01:30am 9.1 8.0 7.1 87 0.9 SSE 2 7 1 4 1026.2 1026.1 0.0
21/01:00am 11.9 9.7 7.8 76 2.0 E 9 13 5 7 1026.2 1026.1 0.0
21/12:30am 10.8 10.2 7.5 80 1.6 ESE 0 9 0 5 1026.0 1025.9 0.0
21/12:00am 12.0 11.6 8.1 77 1.9 SW 0 0 0 0 1026.0 1025.9 0.0
 
Date/Time
EDT
Temp
°C
App
Temp
°C
Dew
Point
Rel
Hum
%
Delta-T
°C
Wind Press
QNH
hPa
Press
MSL
hPa
Rain
since 9 am
mm
Dir
 
Spd
km/h
Gust
km/h
Spd
kts
Gust
kts
20/11:30pm 13.6 9.2 8.9 73 2.4 N 22 24 12 13 1025.9 1025.8 0.0
20/11:00pm 11.7 9.6 8.2 79 1.7 SSW 9 9 5 5 1025.0 1025.0 0.0
20/10:30pm 11.8 9.8 8.5 80 1.6 SW 9 11 5 6 1024.7 1024.7 0.0
20/10:00pm 13.1 11.4 8.2 72 2.4 WSW 7 7 4 4 1024.5 1024.5 0.0
20/09:30pm 14.9 12.5 8.6 66 3.2 SSE 11 15 6 8 1024.3 1024.3 0.0
20/09:00pm 16.0 14.6 9.7 66 3.3 ESE 7 11 4 6 1023.9 1023.9 0.0
20/08:30pm 19.3 16.8 8.0 48 5.9 S 11 13 6 7 1023.2 1023.2 0.0
20/08:00pm 19.4 17.4 8.7 50 5.6 S 9 11 5 6 1022.9 1022.9 0.0
20/07:30pm 22.3 21.0 9.8 45 6.8 SSW 7 9 4 5 1022.7 1022.7 0.0
20/07:00pm 23.6 21.9 9.9 42 7.5 SSW 9 11 5 6 1022.3 1022.3 0.0
20/06:30pm 24.9 22.9 8.8 36 8.7 SSW 9 11 5 6 1022.3 1022.3 0.0
20/06:00pm 26.3 24.3 6.9 29 10.2 SW 7 11 4 6 1022.3 1022.3 0.0
20/05:30pm 26.5 24.1 8.5 32 9.8 SW 11 15 6 8 1022.2 1022.2 0.0
20/05:00pm 26.3 24.3 10.0 36 9.1 SSW 11 17 6 9 1022.1 1022.1 0.0
20/04:30pm 26.1 23.6 8.1 32 9.7 SE 11 17 6 9 1022.2 1022.2 0.0
20/04:00pm 26.3 23.7 9.2 34 9.4 S 13 20 7 11 1022.4 1022.4 0.0
20/03:30pm 26.1 23.6 8.1 32 9.7 SSE 11 17 6 9 1022.6 1022.6 0.0
20/03:00pm 26.0 23.7 8.9 34 9.3 SE 11 19 6 10 1022.9 1022.9 0.0
20/02:30pm 25.8 24.3 9.2 35 9.1 SSW 7 17 4 9 1023.4 1023.4 0.0
20/02:00pm 25.0 22.6 8.5 35 8.9 WSW 11 15 6 8 1023.8 1023.8 0.0
20/01:30pm 25.2 23.8 8.7 35 9.0 WSW 6 9 3 5 1024.1 1024.1 0.0
20/01:00pm 24.9 23.7 10.4 40 8.1 ENE 7 15 4 8 1024.3 1024.3 0.0
20/12:30pm 23.8 21.4 8.6 38 8.2 E 11 20 6 11 1024.5 1024.5 0.0
20/12:00pm 22.7 21.1 8.8 41 7.4 S 7 13 4 7 1024.8 1024.8 0.0
20/11:30am 22.5 19.3 8.6 41 7.4 SE 15 22 8 12 1025.1 1025.1 0.0
20/11:00am 21.2 18.4 8.5 44 6.7 SE 13 17 7 9 1025.4 1025.3 0.0
20/10:30am 20.2 17.3 8.2 46 6.3 SE 13 19 7 10 1025.4 1025.3 0.0
20/10:00am 19.5 16.5 9.1 51 5.5 SE 15 22 8 12 1025.2 1025.2 0.0
20/09:30am 18.5 14.9 8.5 52 5.2 SSE 17 22 9 12 1025.1 1025.1 0.0
20/09:00am 17.6 14.4 8.5 55 4.7 SSE 15 22 8 12 1025.0 1025.0 0.0
20/08:30am 16.4 14.0 10.0 66 3.4 SSE 13 17 7 9 1024.7 1024.7 0.0
20/08:00am 14.6 12.7 10.4 76 2.2 S 11 15 6 8 1024.4 1024.4 0.0
20/07:30am 12.1 11.4 12.1 100 0.0 S 7 11 4 6 1024.1 1024.1 0.0
20/07:00am 8.6 7.0 8.6 100 0.0 S 7 9 4 5 1023.9 1023.9 0.0
20/06:30am 8.6 7.1 8.5 99 0.0 S 6 7 3 4 1023.5 1023.5 0.0
20/06:00am 8.8 7.4 8.7 99 0.0 SSW 6 7 3 4 1023.2 1023.2 0.0
20/05:30am 9.0 7.4 7.9 93 0.5 WSW 6 7 3 4 1022.8 1022.8 0.0
20/05:00am 10.8 9.4 8.9 88 0.9 S 6 7 3 4 1022.5 1022.5 0.0
20/04:30am 11.0 9.1 8.9 87 1.0 S 9 11 5 6 1022.4 1022.4 0.0
20/04:00am 12.6 10.0 9.4 81 1.6 S 13 15 7 8 1022.5 1022.5 0.0
20/03:30am 13.0 10.5 9.6 80 1.7 S 13 17 7 9 1022.2 1022.2 0.0
20/03:00am 10.7 8.7 8.5 86 1.1 SSW 9 11 5 6 1022.0 1022.0 0.0
20/02:30am 12.6 10.2 10.1 85 1.3 S 13 15 7 8 1021.9 1021.9 0.0
20/02:00am 10.2 7.2 9.1 93 0.5 SSW 15 19 8 10 1022.0 1022.0 0.0
20/01:30am 11.6 10.1 9.3 86 1.2 ESE 7 9 4 5 1021.9 1021.9 0.0
20/01:00am 12.7 11.6 10.8 88 1.0 S 7 11 4 6 1022.3 1022.3 0.0
20/12:30am 12.9 11.7 10.4 85 1.3 S 7 9 4 5 1022.5 1022.5 0.0
20/12:00am 13.8 12.2 10.2 79 1.9 SSE 9 11 5 6 1022.5 1022.5 0.0
 
Date/Time
EDT
Temp
°C
App
Temp
°C
Dew
Point
Rel
Hum
%
Delta-T
°C
Wind Press
QNH
hPa
Press
MSL
hPa
Rain
since 9 am
mm
Dir
 
Spd
km/h
Gust
km/h
Spd
kts
Gust
kts
19/11:30pm 15.0 13.4 11.6 80 1.8 S 11 15 6 8 1022.5 1022.5 0.0
19/11:00pm 12.2 10.7 10.4 89 0.9 SSW 9 11 5 6 1022.2 1022.2 0.0
19/10:30pm 12.3 11.7 10.4 88 1.0 SSW 4 9 2 5 1022.0 1022.0 0.0
19/10:00pm 14.2 14.7 11.5 84 1.4 CALM 0 0 0 0 1021.7 1021.6 0.0
19/09:30pm 14.6 14.6 11.0 79 1.9 NE 2 7 1 4 1021.6 1021.5 0.0
19/09:00pm 16.1 15.4 11.5 74 2.5 SSW 6 7 3 4 1021.3 1021.2 0.0
19/08:30pm 17.1 16.8 11.4 69 3.1 W 4 7 2 4 1021.1 1021.0 0.0
19/08:00pm 17.7 16.8 11.5 67 3.4 WNW 7 9 4 5 1021.1 1021.0 0.0
19/07:30pm 21.6 20.9 10.1 48 6.3 ENE 4 6 2 3 1021.2 1021.1 0.0
19/07:00pm 24.3 22.7 8.7 37 8.4 SE 7 9 4 5 1021.2 1021.1 0.0
19/06:30pm 23.6 22.1 10.6 44 7.2 SE 9 13 5 7 1021.1 1021.0 0.0
19/06:00pm 25.0 22.4 9.3 37 8.6 SE 13 17 7 9 1021.0 1020.9 0.0
19/05:30pm 26.8 24.5 7.3 29 10.4 E 9 13 5 7 1021.0 1020.9 0.0
19/05:00pm 27.2 24.4 7.1 28 10.7 ENE 11 13 6 7 1020.9 1020.8 0.0
19/04:30pm 26.4 23.9 8.4 32 9.8 NE 11 15 6 8 1021.0 1020.9 0.0
19/04:00pm 26.2 24.1 8.2 32 9.7 NE 9 13 5 7 1021.5 1021.4 0.0
19/03:30pm 25.9 23.2 7.5 31 9.8 NNE 11 17 6 9 1021.9 1021.9 0.0
19/03:00pm 26.4 23.4 7.9 31 9.9 NE 13 19 7 10 1022.3 1022.3 0.0
19/02:30pm 25.8 23.2 7.9 32 9.6 N 11 17 6 9 1022.6 1022.6 0.0
19/02:00pm 25.1 22.1 9.4 37 8.6 NNE 15 22 8 12 1023.1 1023.1 0.0
19/01:30pm 23.8 21.3 9.8 41 7.7 N 13 22 7 12 1023.9 1023.9 0.0
19/01:00pm 23.3 21.6 10.0 43 7.3 NNE 9 15 5 8 1024.3 1024.3 0.0
19/12:30pm 22.0 21.5 10.8 49 6.2 E 4 9 2 5 1024.6 1024.6 0.0
19/12:00pm 20.1 19.3 11.8 59 4.6 S 7 11 4 6 1025.2 1025.2 0.0
19/11:30am 18.7 17.4 11.3 62 4.1 SSW 9 13 5 7 1025.8 1025.7 0.0
19/11:00am 18.4 17.7 11.9 66 3.6 WSW 7 9 4 5 1025.9 1025.8 0.0
19/10:30am 16.9 16.1 11.2 69 3.1 SSW 6 9 3 5 1026.1 1026.0 0.0
19/10:00am 16.4 16.4 9.8 65 3.5 CALM 0 0 0 0 1026.1 1026.0 0.0
19/09:30am 15.2 14.4 9.8 70 2.8 SE 4 9 2 5 1026.2 1026.1 0.0
19/09:00am 13.1 11.9 9.5 79 1.8 S 6 9 3 5 1026.4 1026.3 0.0
19/08:30am 10.6 10.6 9.8 95 0.4 CALM 0 0 0 0 1026.2 1026.1 0.0
19/08:00am 8.9 8.6 8.5 97 0.2 CALM 0 0 0 0 1025.9 1025.8 0.0
19/07:30am 8.1 6.8 7.8 98 0.1 E 4 6 2 3 1025.6 1025.5 0.0
19/07:00am 6.6 4.6 6.3 98 0.1 S 6 7 3 4 1025.7 1025.6 0.0
19/06:30am 5.9 4.5 5.5 97 0.2 SSW 2 6 1 3 1025.1 1025.1 0.0
19/06:00am 6.2 4.5 5.8 97 0.2 SSW 4 7 2 4 1024.8 1024.8 0.0
19/05:30am 6.4 5.4 5.7 95 0.3 CALM 0 0 0 0 1024.5 1024.5 0.0
19/05:00am 6.7 4.7 6.1 96 0.3 S 6 7 3 4 1024.5 1024.5 0.0
19/04:30am 6.8 4.6 6.2 96 0.3 SW 7 7 4 4 1024.5 1024.5 0.0
19/04:00am 7.6 6.9 6.9 95 0.3 CALM 0 0 0 0 1024.3 1024.3 0.0
19/03:30am 7.4 5.9 6.7 95 0.3 SSW 4 7 2 4 1024.5 1024.5 0.0
19/03:00am 7.9 7.2 7.0 94 0.4 CALM 0 0 0 0 1024.6 1024.6 0.0
19/02:30am 8.4 7.8 7.5 94 0.4 CALM 0 0 0 0 1024.7 1024.7 0.0
19/02:00am 9.0 8.4 7.6 91 0.7 CALM 0 0 0 0 1024.9 1024.9 0.0
19/01:30am 9.3 8.8 7.9 91 0.7 CALM 0 6 0 3 1025.4 1025.3 0.0
19/01:00am 9.7 8.1 8.1 90 0.8 SW 6 7 3 4 1025.7 1025.6 0.0
19/12:30am 9.9 8.2 8.2 89 0.8 SSW 7 9 4 5 1025.7 1025.6 0.0
19/12:00am 10.8 9.3 9.1 89 0.8 SSW 7 7 4 4 1025.9 1025.8 0.0
 
Date/Time
EDT
Temp
°C
App
Temp
°C
Dew
Point
Rel
Hum
%
Delta-T
°C
Wind Press
QNH
hPa
Press
MSL
hPa
Rain
since 9 am
mm
Dir
 
Spd
km/h
Gust
km/h
Spd
kts
Gust
kts
18/11:30pm 10.3 8.7 8.6 89 0.8 SSW 7 9 4 5 1026.1 1026.0 0.0
18/11:00pm 10.9 9.6 9.2 89 0.8 SSW 6 7 3 4 1025.9 1025.8 0.0
18/10:30pm 11.3 10.1 9.4 88 1.0 S 6 9 3 5 1026.0 1025.9 0.0
18/10:00pm 11.4 10.0 9.0 85 1.2 S 6 7 3 4 1026.1 1026.0 0.0
18/09:30pm 12.0 10.6 9.4 84 1.3 SSW 7 9 4 5 1025.9 1025.8 0.0
18/09:00pm 12.6 11.3 9.1 79 1.8 WSW 6 9 3 5 1025.5 1025.4 0.0
18/08:30pm 15.0 14.3 8.7 66 3.2 E 2 7 1 4 1024.8 1024.8 0.0
18/08:00pm 16.8 16.7 9.5 62 3.8 CALM 0 0 0 0 1024.8 1024.8 0.0

Other Formats:

Comma delimited format used in spreadsheet applications
http://www.bom.gov.au/fwo/IDV60801/IDV60801.94889.axf

JavaScript Object Notation format (JSON) in row-major order
http://www.bom.gov.au/fwo/IDV60801/IDV60801.94889.json